RJFC(METAR)
05/30 17:00
RJFC 300800Z 23004KT 8000 RA FEW007 SCT030 BKNXXX 18/17 Q1016 RMK
A3001=
戻る
トップページへ戻る
IMOC Co,.Ltd.